sensor_id;sensor_type;location;lat;lon;timestamp;pressure;altitude;pressure_sealevel;temperature;humidity
56594;BME280;42474;51.660;5.824;2023-11-21T15:50:53;1019.4;;;20.7;64
56594;BME280;42474;51.660;5.824;2023-11-21T15:54:53;1019.5;;;20.8;62
56594;BME280;42474;51.660;5.824;2023-11-21T15:58:53;1019.6;;;20.9;61.5
56594;BME280;42474;51.660;5.824;2023-11-21T16:02:53;1019.7;;;21;61
56594;BME280;42474;51.660;5.824;2023-11-21T16:06:53;1019.7;;;21.1;60.5
56594;BME280;42474;51.660;5.824;2023-11-21T16:10:53;1019.8;;;21.2;60.5
56594;BME280;42474;51.660;5.824;2023-11-21T16:14:53;1020;;;21.3;62
56594;BME280;42474;51.660;5.824;2023-11-21T16:18:53;1020.1;;;21.3;61.5
56594;BME280;42474;51.660;5.824;2023-11-21T16:22:53;1020.1;;;21.3;62
56594;BME280;42474;51.660;5.824;2023-11-21T16:26:53;1020.1;;;21.2;62
56594;BME280;42474;51.660;5.824;2023-11-21T16:30:53;1020.3;;;21.2;62
56594;BME280;42474;51.660;5.824;2023-11-21T16:34:53;1020.5;;;21.2;61.5
56594;BME280;42474;51.660;5.824;2023-11-21T16:38:53;1020.6;;;21.2;61
56594;BME280;42474;51.660;5.824;2023-11-21T16:42:53;1020.7;;;21.2;61
56594;BME280;42474;51.660;5.824;2023-11-21T16:46:53;1020.8;;;21.1;60.5
56594;BME280;42474;51.660;5.824;2023-11-21T16:50:53;1020.9;;;21.1;60.5
56594;BME280;42474;51.660;5.824;2023-11-21T16:54:53;1020.9;;;21.1;60.5
56594;BME280;42474;51.660;5.824;2023-11-21T16:58:53;1021;;;21.1;60.5
56594;BME280;42474;51.660;5.824;2023-11-21T17:02:53;1021.2;;;21.1;60.5
56594;BME280;42474;51.660;5.824;2023-11-21T17:06:53;1021.3;;;21.1;61.5
56594;BME280;42474;51.660;5.824;2023-11-21T17:10:53;1021.4;;;21.1;60.5
56594;BME280;42474;51.660;5.824;2023-11-21T17:14:53;1021.5;;;21.1;60.5
56594;BME280;42474;51.660;5.824;2023-11-21T17:18:53;1021.6;;;21.1;60.5
56594;BME280;42474;51.660;5.824;2023-11-21T17:22:53;1021.7;;;21;60.5
56594;BME280;42474;51.660;5.824;2023-11-21T17:26:53;1021.8;;;21;60.5
56594;BME280;42474;51.660;5.824;2023-11-21T17:30:53;1021.9;;;21;60.5
56594;BME280;42474;51.660;5.824;2023-11-21T17:34:53;1021.9;;;21;60.5
56594;BME280;42474;51.660;5.824;2023-11-21T17:38:53;1022;;;21;60.5
56594;BME280;42474;51.660;5.824;2023-11-21T17:42:53;1022.1;;;21;61
56594;BME280;42474;51.660;5.824;2023-11-21T17:46:53;1022.1;;;21;60.5
56594;BME280;42474;51.660;5.824;2023-11-21T17:50:53;1022.2;;;21;61
56594;BME280;42474;51.660;5.824;2023-11-21T17:54:53;1022.2;;;21;61
56594;BME280;42474;51.660;5.824;2023-11-21T17:58:53;1022.3;;;21;61
56594;BME280;42474;51.660;5.824;2023-11-21T18:02:53;1022.3;;;20.9;61
56594;BME280;42474;51.660;5.824;2023-11-21T18:06:53;1022.4;;;20.9;61
56594;BME280;42474;51.660;5.824;2023-11-21T18:10:53;1022.5;;;20.9;61.5
56594;BME280;42474;51.660;5.824;2023-11-21T18:14:53;1022.5;;;20.9;62
56594;BME280;42474;51.660;5.824;2023-11-21T18:18:53;1022.6;;;20.9;62
56594;BME280;42474;51.660;5.824;2023-11-21T18:22:53;1022.6;;;20.9;62
56594;BME280;42474;51.660;5.824;2023-11-21T18:26:53;1022.7;;;20.9;62
56594;BME280;42474;51.660;5.824;2023-11-21T18:30:53;1022.7;;;21;62
56594;BME280;42474;51.660;5.824;2023-11-21T18:34:53;1022.8;;;21;62
56594;BME280;42474;51.660;5.824;2023-11-21T18:38:53;1022.8;;;21;62
56594;BME280;42474;51.660;5.824;2023-11-21T18:42:53;1023;;;21;62
56594;BME280;42474;51.660;5.824;2023-11-21T18:46:53;1023;;;21.1;62
56594;BME280;42474;51.660;5.824;2023-11-21T18:50:53;1023.1;;;21.1;62
56594;BME280;42474;51.660;5.824;2023-11-21T18:54:53;1023.1;;;21.1;62
56594;BME280;42474;51.660;5.824;2023-11-21T18:58:53;1023.1;;;21.1;62
56594;BME280;42474;51.660;5.824;2023-11-21T19:02:53;1023.1;;;21.1;62
56594;BME280;42474;51.660;5.824;2023-11-21T19:06:53;1023.2;;;21.1;62.5
56594;BME280;42474;51.660;5.824;2023-11-21T19:10:53;1023.3;;;21.1;62.5
56594;BME280;42474;51.660;5.824;2023-11-21T19:14:53;1023.3;;;21.2;62.5
56594;BME280;42474;51.660;5.824;2023-11-21T19:18:53;1023.4;;;21.2;62.5
56594;BME280;42474;51.660;5.824;2023-11-21T19:22:53;1023.5;;;21.2;62.5
56594;BME280;42474;51.660;5.824;2023-11-21T19:30:53;1023.6;;;21.1;63
56594;BME280;42474;51.660;5.824;2023-11-21T19:34:53;1023.7;;;21.1;63
56594;BME280;42474;51.660;5.824;2023-11-21T19:38:53;1023.7;;;21;63.5
56594;BME280;42474;51.660;5.824;2023-11-21T19:42:53;1023.8;;;21.1;63.5
56594;BME280;42474;51.660;5.824;2023-11-21T19:46:53;1023.9;;;21;64
56594;BME280;42474;51.660;5.824;2023-11-21T19:50:53;1023.9;;;21;63.5
56594;BME280;42474;51.660;5.824;2023-11-21T19:54:53;1024;;;21;64
56594;BME280;42474;51.660;5.824;2023-11-21T19:58:53;1024.1;;;20.9;64
56594;BME280;42474;51.660;5.824;2023-11-21T20:02:53;1024.1;;;20.9;64
56594;BME280;42474;51.660;5.824;2023-11-21T20:06:53;1024.1;;;20.9;64
56594;BME280;42474;51.660;5.824;2023-11-21T20:10:53;1024.2;;;20.9;64.5
56594;BME280;42474;51.660;5.824;2023-11-21T20:14:53;1024.2;;;20.9;65
56594;BME280;42474;51.660;5.824;2023-11-21T20:18:53;1024.3;;;20.9;64.5
56594;BME280;42474;51.660;5.824;2023-11-21T20:22:53;1024.4;;;20.9;64.5
56594;BME280;42474;51.660;5.824;2023-11-21T20:26:54;1024.5;;;20.9;64
56594;BME280;42474;51.660;5.824;2023-11-21T20:30:53;1024.6;;;20.9;64.5
56594;BME280;42474;51.660;5.824;2023-11-21T20:34:53;1024.6;;;20.9;64.5
56594;BME280;42474;51.660;5.824;2023-11-21T20:38:53;1024.6;;;20.9;64.5
56594;BME280;42474;51.660;5.824;2023-11-21T20:42:53;1024.6;;;20.9;64.5
56594;BME280;42474;51.660;5.824;2023-11-21T20:46:53;1024.7;;;20.9;64.5
56594;BME280;42474;51.660;5.824;2023-11-21T20:50:53;1024.7;;;20.9;64.5
56594;BME280;42474;51.660;5.824;2023-11-21T20:54:53;1024.7;;;20.9;64
56594;BME280;42474;51.660;5.824;2023-11-21T20:58:53;1024.7;;;20.9;64
56594;BME280;42474;51.660;5.824;2023-11-21T21:02:53;1024.7;;;20.9;64.5
56594;BME280;42474;51.660;5.824;2023-11-21T21:06:53;1024.6;;;20.9;64.5
56594;BME280;42474;51.660;5.824;2023-11-21T21:10:53;1024.6;;;20.9;65
56594;BME280;42474;51.660;5.824;2023-11-21T21:14:53;1024.7;;;21;65.5
56594;BME280;42474;51.660;5.824;2023-11-21T21:18:53;1024.8;;;21;65
56594;BME280;42474;51.660;5.824;2023-11-21T21:22:53;1024.9;;;21;65
56594;BME280;42474;51.660;5.824;2023-11-21T21:26:53;1025.1;;;21.1;64.5
56594;BME280;42474;51.660;5.824;2023-11-21T21:30:53;1025.2;;;21.1;64.5
56594;BME280;42474;51.660;5.824;2023-11-21T21:34:53;1025.2;;;21.1;64.5
56594;BME280;42474;51.660;5.824;2023-11-21T21:38:53;1025.2;;;21.1;64.5
56594;BME280;42474;51.660;5.824;2023-11-21T21:42:54;1025.2;;;21.1;64.5
56594;BME280;42474;51.660;5.824;2023-11-21T21:46:53;1025.3;;;21.1;64.5
56594;BME280;42474;51.660;5.824;2023-11-21T21:50:53;1025.3;;;21.1;64
56594;BME280;42474;51.660;5.824;2023-11-21T21:54:53;1025.3;;;21;64
56594;BME280;42474;51.660;5.824;2023-11-21T21:58:53;1025.4;;;21;64
56594;BME280;42474;51.660;5.824;2023-11-21T22:02:53;1025.5;;;21;64
56594;BME280;42474;51.660;5.824;2023-11-21T22:06:53;1025.6;;;21;63.5
56594;BME280;42474;51.660;5.824;2023-11-21T22:10:53;1025.6;;;21;64
56594;BME280;42474;51.660;5.824;2023-11-21T22:14:53;1025.7;;;21;64
56594;BME280;42474;51.660;5.824;2023-11-21T22:18:53;1025.8;;;21;63.5
56594;BME280;42474;51.660;5.824;2023-11-21T22:22:53;1025.8;;;20.9;64
56594;BME280;42474;51.660;5.824;2023-11-21T22:26:53;1025.8;;;20.9;64
56594;BME280;42474;51.660;5.824;2023-11-21T22:30:53;1025.9;;;20.9;63.5
56594;BME280;42474;51.660;5.824;2023-11-21T22:34:53;1026;;;20.9;63.5
56594;BME280;42474;51.660;5.824;2023-11-21T22:38:53;1026.1;;;20.9;63.5
56594;BME280;42474;51.660;5.824;2023-11-21T22:42:53;1026.1;;;20.9;63.5
56594;BME280;42474;51.660;5.824;2023-11-21T22:46:53;1026.2;;;20.8;63.5
56594;BME280;42474;51.660;5.824;2023-11-21T22:50:53;1026.2;;;20.8;63
56594;BME280;42474;51.660;5.824;2023-11-21T22:54:53;1026.1;;;20.8;63
56594;BME280;42474;51.660;5.824;2023-11-21T22:58:53;1026.1;;;20.8;63
56594;BME280;42474;51.660;5.824;2023-11-21T23:02:53;1026.1;;;20.8;62.5
56594;BME280;42474;51.660;5.824;2023-11-21T23:06:53;1026.2;;;20.8;62.5
56594;BME280;42474;51.660;5.824;2023-11-21T23:10:53;1026.2;;;20.7;63
56594;BME280;42474;51.660;5.824;2023-11-21T23:14:53;1026.2;;;20.8;63
56594;BME280;42474;51.660;5.824;2023-11-21T23:18:53;1026.1;;;20.8;62.5
56594;BME280;42474;51.660;5.824;2023-11-21T23:22:53;1026.1;;;20.8;62.5
56594;BME280;42474;51.660;5.824;2023-11-21T23:26:53;1026.2;;;20.8;62.5
56594;BME280;42474;51.660;5.824;2023-11-21T23:30:53;1026.2;;;20.7;62
56594;BME280;42474;51.660;5.824;2023-11-21T23:34:53;1026.2;;;20.7;62
56594;BME280;42474;51.660;5.824;2023-11-21T23:38:53;1026.3;;;20.7;62
56594;BME280;42474;51.660;5.824;2023-11-21T23:42:53;1026.3;;;20.7;61.5
56594;BME280;42474;51.660;5.824;2023-11-21T23:46:53;1026.4;;;20.7;61.5
56594;BME280;42474;51.660;5.824;2023-11-21T23:50:53;1026.4;;;20.7;61.5
56594;BME280;42474;51.660;5.824;2023-11-21T23:54:53;1026.5;;;20.7;61.5
56594;BME280;42474;51.660;5.824;2023-11-21T23:58:53;1026.3;;;20.7;61
